createdAt,value
2023-05-01T00:02:32.419Z,5.40
2023-05-01T00:04:59.855Z,4.13
2023-05-01T00:07:30.903Z,4.90
2023-05-01T00:09:58.596Z,6.10
2023-05-01T00:12:26.876Z,6.57
2023-05-01T00:14:54.756Z,6.70
2023-05-01T00:17:22.891Z,6.03
2023-05-01T00:19:54.382Z,9.02
2023-05-01T00:22:22.057Z,5.32
2023-05-01T00:24:50.157Z,6.43
2023-05-01T00:27:17.561Z,5.28
2023-05-01T00:29:44.937Z,5.25
2023-05-01T00:32:12.304Z,5.78
2023-05-01T00:34:39.797Z,4.45
2023-05-01T00:37:07.443Z,7.57
2023-05-01T00:39:34.872Z,5.07
2023-05-01T00:42:02.201Z,5.13
2023-05-01T00:44:29.608Z,5.43
2023-05-01T00:47:00.163Z,5.50
2023-05-01T00:49:27.590Z,7.68
2023-05-01T00:51:55.128Z,4.70
2023-05-01T00:54:23.733Z,8.43
2023-05-01T00:56:52.455Z,6.93
2023-05-01T00:59:19.992Z,4.95
2023-05-01T01:01:47.449Z,4.47
2023-05-01T01:04:14.967Z,5.80
2023-05-01T01:06:53.512Z,7.00
2023-05-01T01:09:45.993Z,6.60
2023-05-01T01:12:31.105Z,5.78
2023-05-01T01:15:14.416Z,4.18
2023-05-01T01:18:12.399Z,6.65
2023-05-01T01:21:06.907Z,6.57
2023-05-01T01:23:53.278Z,5.38
2023-05-01T01:26:54.596Z,5.65
2023-05-01T01:29:59.353Z,5.78
2023-05-01T01:32:39.918Z,6.85
2023-05-01T01:35:25.856Z,5.60
2023-05-01T01:38:20.936Z,4.90
2023-05-01T01:41:07.366Z,5.53
2023-05-01T01:43:40.666Z,6.20
2023-05-01T01:46:10.739Z,4.90
2023-05-01T01:48:42.663Z,4.22
2023-05-01T01:51:14.501Z,4.60
2023-05-01T01:53:48.320Z,8.90
2023-05-01T01:56:17.620Z,7.77
2023-05-01T01:58:46.487Z,4.93
2023-05-01T02:01:15.810Z,5.18
2023-05-01T02:03:47.197Z,7.20
2023-05-01T02:06:17.075Z,5.50
2023-05-01T02:08:48.258Z,5.72
2023-05-01T02:11:21.007Z,8.63
2023-05-01T02:13:49.879Z,7.72
2023-05-01T02:16:19.010Z,5.30
2023-05-01T02:18:46.826Z,5.78
2023-05-01T02:21:15.218Z,4.82
2023-05-01T02:23:42.688Z,4.40
2023-05-01T02:26:16.973Z,6.78
2023-05-01T02:28:44.377Z,6.68
2023-05-01T02:31:11.955Z,6.28
2023-05-01T02:33:39.381Z,6.53
2023-05-01T02:36:07.077Z,10.98
2023-05-01T02:38:35.445Z,5.18
2023-05-01T02:41:03.708Z,6.43
2023-05-01T02:43:33.856Z,7.45
2023-05-01T02:46:04.655Z,6.82
2023-05-01T02:48:35.322Z,6.38
2023-05-01T02:51:04.975Z,4.90
2023-05-01T02:53:33.479Z,5.32
2023-05-01T02:56:08.766Z,7.82
2023-05-01T02:58:36.590Z,8.18
2023-05-01T03:01:04.457Z,4.90
2023-05-01T03:03:31.857Z,5.88
2023-05-01T03:06:00.082Z,5.63
2023-05-01T03:08:28.394Z,5.53
2023-05-01T03:10:55.820Z,5.18
2023-05-01T03:13:23.226Z,7.60
2023-05-01T03:15:50.580Z,6.10
2023-05-01T03:18:17.864Z,6.50
2023-05-01T03:20:55.085Z,6.80
2023-05-01T03:23:23.222Z,9.25
2023-05-01T03:25:51.270Z,5.60
2023-05-01T03:28:21.541Z,8.30
2023-05-01T03:30:51.640Z,6.03
2023-05-01T03:33:19.332Z,5.07
2023-05-01T03:35:47.536Z,6.25
2023-05-01T03:38:15.918Z,7.57
2023-05-01T03:41:01.725Z,5.97
2023-05-01T03:43:54.133Z,5.70
2023-05-01T03:46:32.817Z,5.72
2023-05-01T03:49:00.251Z,6.32
2023-05-01T03:51:30.183Z,6.40
2023-05-01T03:53:58.745Z,5.55
2023-05-01T03:56:36.513Z,7.53
2023-05-01T03:59:05.874Z,6.22
2023-05-01T04:01:35.729Z,6.90
2023-05-01T04:04:03.509Z,4.55
2023-05-01T04:06:31.206Z,6.78
2023-05-01T04:08:58.562Z,8.80
2023-05-01T04:11:27.199Z,6.95
2023-05-01T04:13:54.553Z,7.82
2023-05-01T04:16:22.208Z,5.85
2023-05-01T04:18:49.601Z,6.20
2023-05-01T04:21:18.790Z,6.80
2023-05-01T04:23:49.802Z,5.90
2023-05-01T04:26:18.080Z,8.07
2023-05-01T04:28:45.392Z,4.95
2023-05-01T04:31:15.511Z,7.68
2023-05-01T04:33:42.892Z,6.20
2023-05-01T04:36:10.238Z,5.55
2023-05-01T04:38:38.088Z,6.15
2023-05-01T04:41:06.768Z,8.23
2023-05-01T04:43:34.129Z,6.88
2023-05-01T04:46:04.718Z,7.32
2023-05-01T04:48:33.088Z,6.00
2023-05-01T04:51:00.863Z,5.97
2023-05-01T04:53:31.998Z,5.30
2023-05-01T04:55:59.560Z,5.75
2023-05-01T04:58:27.584Z,7.68
2023-05-01T05:01:00.422Z,6.55
2023-05-01T05:03:29.141Z,6.15
2023-05-01T05:05:56.544Z,5.72
2023-05-01T05:08:24.615Z,7.53
2023-05-01T05:11:02.242Z,10.38
2023-05-01T05:13:39.211Z,8.80
2023-05-01T05:16:12.087Z,10.23
2023-05-01T05:18:39.633Z,5.82
2023-05-01T05:21:08.555Z,5.97
2023-05-01T05:23:36.982Z,5.07
2023-05-01T05:26:05.346Z,5.03
2023-05-01T05:28:33.097Z,7.57
2023-05-01T05:31:00.553Z,7.95
2023-05-01T05:33:29.173Z,8.13
2023-05-01T05:35:59.507Z,5.72
2023-05-01T05:38:32.122Z,5.82
2023-05-01T05:41:00.947Z,6.50
2023-05-01T05:43:30.037Z,7.60
2023-05-01T05:45:59.252Z,8.88
2023-05-01T05:48:28.887Z,6.95
2023-05-01T05:50:56.867Z,9.93
2023-05-01T05:53:26.090Z,9.02
2023-05-01T05:55:54.432Z,6.95
2023-05-01T05:58:23.287Z,8.70
2023-05-01T06:00:56.036Z,10.00
2023-05-01T06:03:24.257Z,6.65
2023-05-01T06:05:54.403Z,6.20
2023-05-01T06:08:29.788Z,7.25
2023-05-01T06:10:58.870Z,11.65
2023-05-01T06:13:27.639Z,6.80
2023-05-01T06:15:55.067Z,6.30
2023-05-01T06:18:22.525Z,7.20
2023-05-01T06:20:50.097Z,6.63
2023-05-01T06:23:18.882Z,6.47
2023-05-01T06:25:58.982Z,5.18
2023-05-01T06:28:26.452Z,7.93
2023-05-01T06:30:53.838Z,8.00
2023-05-01T06:33:21.760Z,6.43
2023-05-01T06:36:00.246Z,7.43
2023-05-01T06:38:27.801Z,7.45
2023-05-01T06:40:55.597Z,8.43
2023-05-01T06:43:22.940Z,7.85
2023-05-01T06:45:51.950Z,9.63
2023-05-01T06:48:20.685Z,8.77
2023-05-01T06:50:48.012Z,7.97
2023-05-01T06:53:15.371Z,8.93
2023-05-01T06:55:44.157Z,8.55
2023-05-01T06:58:22.762Z,9.70
2023-05-01T07:00:53.297Z,6.60
2023-05-01T07:03:21.234Z,8.15
2023-05-01T07:05:48.764Z,11.85
2023-05-01T07:08:16.182Z,9.48
2023-05-01T07:10:44.738Z,6.35
2023-05-01T07:13:12.280Z,7.78
2023-05-01T07:15:39.738Z,8.23
2023-05-01T07:18:10.120Z,9.18
2023-05-01T07:20:43.197Z,8.07
2023-05-01T07:23:12.132Z,9.63
2023-05-01T07:25:41.379Z,7.53
2023-05-01T07:28:10.542Z,7.53
2023-05-01T07:30:38.806Z,7.63
2023-05-01T07:33:07.426Z,8.27
2023-05-01T07:35:34.811Z,7.07
2023-05-01T07:38:02.883Z,8.63
2023-05-01T07:40:32.552Z,6.95
2023-05-01T07:43:02.246Z,8.15
2023-05-01T07:45:29.641Z,7.78
2023-05-01T07:47:57.324Z,10.48
2023-05-01T07:50:26.031Z,9.25
2023-05-01T07:52:54.724Z,7.65
2023-05-01T07:55:24.068Z,11.02
2023-05-01T07:57:51.506Z,8.15
2023-05-01T08:00:19.142Z,9.82
2023-05-01T08:02:48.315Z,8.43
2023-05-01T08:05:17.297Z,8.90
2023-05-01T08:07:45.532Z,10.45
2023-05-01T08:10:13.027Z,7.82
2023-05-01T08:12:41.676Z,10.38
2023-05-01T08:15:09.490Z,10.48
2023-05-01T08:17:37.229Z,9.32
2023-05-01T08:20:05.023Z,8.20
2023-05-01T08:22:32.358Z,9.88
2023-05-01T08:24:59.765Z,9.27
2023-05-01T08:27:27.493Z,9.52
2023-05-01T08:29:55.181Z,8.00
2023-05-01T08:32:22.741Z,10.35
2023-05-01T08:34:50.971Z,11.63
2023-05-01T08:37:19.241Z,9.98
2023-05-01T08:39:46.568Z,9.27
2023-05-01T08:42:14.293Z,11.90
2023-05-01T08:44:42.101Z,6.65
2023-05-01T08:47:16.769Z,10.18
2023-05-01T08:49:45.583Z,8.88
2023-05-01T08:52:14.421Z,7.88
2023-05-01T08:54:47.189Z,8.18
2023-05-01T08:57:15.506Z,7.60
2023-05-01T08:59:45.010Z,6.95
2023-05-01T09:02:15.087Z,7.53
2023-05-01T09:04:42.574Z,10.10
2023-05-01T09:07:10.497Z,9.90
2023-05-01T09:09:37.988Z,6.90
2023-05-01T09:12:27.587Z,12.38
2023-05-01T09:14:56.546Z,7.93
2023-05-01T09:17:24.626Z,10.18
2023-05-01T09:19:52.489Z,11.48
2023-05-01T09:22:20.429Z,8.25
2023-05-01T09:24:47.860Z,14.02
2023-05-01T09:27:15.634Z,12.02
2023-05-01T09:29:48.465Z,9.50
2023-05-01T09:32:21.860Z,10.43
2023-05-01T09:34:50.412Z,10.27
2023-05-01T09:37:29.652Z,9.80
2023-05-01T09:40:05.515Z,8.68
2023-05-01T09:42:34.841Z,9.13
2023-05-01T09:45:04.855Z,6.57
2023-05-01T09:47:34.210Z,6.90
2023-05-01T09:50:01.682Z,6.60
2023-05-01T09:52:30.430Z,8.60
2023-05-01T09:55:18.014Z,8.00
2023-05-01T09:57:46.962Z,8.73
2023-05-01T10:00:16.078Z,7.63
2023-05-01T10:02:46.051Z,8.73
2023-05-01T10:05:14.440Z,12.70
2023-05-01T10:07:57.590Z,6.93
2023-05-01T10:10:25.357Z,7.18
2023-05-01T10:12:52.737Z,10.20
2023-05-01T10:15:26.077Z,9.63
2023-05-01T10:17:55.516Z,6.43
2023-05-01T10:20:23.065Z,8.73
2023-05-01T10:22:50.526Z,10.10
2023-05-01T10:25:27.696Z,11.02
2023-05-01T10:27:57.259Z,9.80
2023-05-01T10:30:26.476Z,10.80
2023-05-01T10:32:53.917Z,9.50
2023-05-01T10:35:29.701Z,8.73
2023-05-01T10:37:56.982Z,9.77
2023-05-01T10:40:47.068Z,9.38
2023-05-01T10:43:16.056Z,7.68
2023-05-01T10:45:44.739Z,7.85
2023-05-01T10:48:12.705Z,8.32
2023-05-01T10:51:11.358Z,7.15
2023-05-01T10:53:39.801Z,7.28
2023-05-01T10:56:29.970Z,7.70
2023-05-01T10:59:04.550Z,7.60
2023-05-01T11:01:43.265Z,9.55
2023-05-01T11:04:22.639Z,9.52
2023-05-01T11:07:02.238Z,8.70
2023-05-01T11:09:43.939Z,9.00
2023-05-01T11:12:13.048Z,7.75
2023-05-01T11:15:05.577Z,7.82
2023-05-01T11:17:42.457Z,13.07
2023-05-01T11:20:25.583Z,10.45
2023-05-01T11:22:54.238Z,9.65
2023-05-01T11:25:27.681Z,8.30
2023-05-01T11:27:58.713Z,8.55
2023-05-01T11:30:36.714Z,6.93
2023-05-01T11:33:05.494Z,9.75
2023-05-01T11:35:34.429Z,7.50
2023-05-01T11:38:03.418Z,9.95
2023-05-01T11:40:33.816Z,11.93
2023-05-01T11:43:08.397Z,8.35
2023-05-01T11:45:37.188Z,9.43
2023-05-01T11:48:14.050Z,11.30
2023-05-01T11:50:41.800Z,13.63
2023-05-01T11:53:18.539Z,10.23
2023-05-01T11:55:46.339Z,10.60
2023-05-01T11:58:13.931Z,6.53
2023-05-01T12:00:43.827Z,8.85
2023-05-01T12:03:13.392Z,9.90
2023-05-01T12:05:42.829Z,7.65
2023-05-01T12:08:21.825Z,6.80
2023-05-01T12:10:57.701Z,7.78
2023-05-01T12:13:27.028Z,8.02
2023-05-01T12:15:56.076Z,12.25
2023-05-01T12:18:23.636Z,7.80
2023-05-01T12:20:53.340Z,9.43
2023-05-01T12:23:31.541Z,10.77
2023-05-01T12:25:58.983Z,8.85
2023-05-01T12:28:27.753Z,8.43
2023-05-01T12:31:04.213Z,13.45
2023-05-01T12:33:32.949Z,9.45
2023-05-01T12:36:11.767Z,10.07
2023-05-01T12:38:39.245Z,11.27
2023-05-01T12:41:08.882Z,10.98
2023-05-01T12:43:38.161Z,10.60
2023-05-01T12:46:13.597Z,8.43
2023-05-01T12:48:42.703Z,11.95
2023-05-01T12:51:17.744Z,9.38
2023-05-01T12:53:45.160Z,10.30
2023-05-01T12:56:25.247Z,13.55
2023-05-01T12:58:54.901Z,9.40
2023-05-01T13:01:27.477Z,9.32
2023-05-01T13:03:57.911Z,9.82
2023-05-01T13:06:35.498Z,10.27
2023-05-01T13:09:17.276Z,7.68
2023-05-01T13:11:57.336Z,11.35
2023-05-01T13:14:25.309Z,9.80
2023-05-01T13:16:54.078Z,9.07
2023-05-01T13:19:29.012Z,8.57
2023-05-01T13:21:57.942Z,8.45
2023-05-01T13:24:38.804Z,10.73
2023-05-01T13:27:08.646Z,12.00
2023-05-01T13:29:37.034Z,10.32
2023-05-01T13:32:10.550Z,12.02
2023-05-01T13:34:42.662Z,12.90
2023-05-01T13:37:13.727Z,12.95
2023-05-01T13:39:43.707Z,11.85
2023-05-01T13:42:26.107Z,9.45
2023-05-01T13:44:56.001Z,15.52
2023-05-01T13:47:28.195Z,14.63
2023-05-01T13:49:56.236Z,8.57
2023-05-01T13:52:24.676Z,10.98
2023-05-01T13:54:53.523Z,9.40
2023-05-01T13:57:21.371Z,11.05
2023-05-01T13:59:49.162Z,7.75
2023-05-01T14:02:27.075Z,10.60
2023-05-01T14:04:55.270Z,9.13
2023-05-01T14:07:24.973Z,9.27
2023-05-01T14:09:56.994Z,11.38
2023-05-01T14:12:29.662Z,8.75
2023-05-01T14:15:00.557Z,7.82
2023-05-01T14:17:36.114Z,9.00
2023-05-01T14:20:05.611Z,10.00
2023-05-01T14:22:45.853Z,8.50
2023-05-01T14:25:23.770Z,8.25
2023-05-01T14:27:52.854Z,9.20
2023-05-01T14:30:39.785Z,8.27
2023-05-01T14:33:14.057Z,9.10
2023-05-01T14:38:20.590Z,7.63
2023-05-01T14:40:49.764Z,6.78
2023-05-01T14:43:19.453Z,9.30
2023-05-01T14:45:49.067Z,6.68
2023-05-01T14:48:25.519Z,11.75
2023-05-01T14:51:00.127Z,7.85
2023-05-01T14:53:32.418Z,8.02
2023-05-01T14:55:59.846Z,8.68
2023-05-01T14:58:27.252Z,8.07
2023-05-01T15:00:55.135Z,8.05
2023-05-01T15:03:22.580Z,7.72
2023-05-01T15:05:49.981Z,10.48
2023-05-01T15:08:17.342Z,8.43
2023-05-01T15:10:45.213Z,8.80
2023-05-01T15:13:12.817Z,5.30
2023-05-01T15:15:40.275Z,5.57
2023-05-01T15:18:07.959Z,5.47
2023-05-01T15:20:35.370Z,5.80
2023-05-01T15:23:02.701Z,8.13
2023-05-01T15:25:30.013Z,5.60
2023-05-01T15:27:57.365Z,7.30
2023-05-01T15:30:25.164Z,7.75
2023-05-01T15:32:53.019Z,7.60
2023-05-01T15:35:21.452Z,6.35
2023-05-01T15:37:49.070Z,8.45
2023-05-01T15:40:16.557Z,7.55
2023-05-01T15:42:45.519Z,8.90
2023-05-01T15:45:13.940Z,7.88
2023-05-01T15:47:41.368Z,8.25
2023-05-01T15:50:13.541Z,8.05
2023-05-01T15:52:40.980Z,6.97
2023-05-01T15:55:08.680Z,7.38
2023-05-01T15:57:36.702Z,7.70
2023-05-01T16:00:04.684Z,7.28
2023-05-01T16:02:32.775Z,7.70
2023-05-01T16:05:00.736Z,9.95
2023-05-01T16:07:31.384Z,8.50
2023-05-01T16:09:59.619Z,10.38
2023-05-01T16:12:30.311Z,10.75
2023-05-01T16:14:57.693Z,8.55
2023-05-01T16:17:25.255Z,11.18
2023-05-01T16:19:52.916Z,10.77
2023-05-01T16:22:21.327Z,11.50
2023-05-01T16:24:48.786Z,10.63
2023-05-01T16:27:18.307Z,12.15
2023-05-01T16:29:45.923Z,10.43
2023-05-01T16:32:17.169Z,10.98
2023-05-01T16:34:44.983Z,9.38
2023-05-01T16:37:15.168Z,8.68
2023-05-01T16:39:43.232Z,8.73
2023-05-01T16:42:13.284Z,9.77
2023-05-01T16:44:40.746Z,10.57
2023-05-01T16:47:12.802Z,11.68
2023-05-01T16:49:43.287Z,9.13
2023-05-01T16:52:14.107Z,11.68
2023-05-01T16:54:41.558Z,12.27
2023-05-01T16:57:09.009Z,11.93
2023-05-01T16:59:37.842Z,11.30
2023-05-01T17:02:06.506Z,10.82
2023-05-01T17:04:34.081Z,12.05
2023-05-01T17:07:01.466Z,11.25
2023-05-01T17:09:28.853Z,14.20
2023-05-01T17:11:57.498Z,13.23
2023-05-01T17:14:25.213Z,11.90
2023-05-01T17:16:53.534Z,11.38
2023-05-01T17:19:21.170Z,11.75
2023-05-01T17:21:48.509Z,12.82
2023-05-01T17:24:16.039Z,11.88
2023-05-01T17:26:43.510Z,12.32
2023-05-01T17:29:10.816Z,13.07
2023-05-01T17:31:38.299Z,11.10
2023-05-01T17:34:06.042Z,8.05
2023-05-01T17:36:33.580Z,12.00
2023-05-01T17:39:01.540Z,12.27
2023-05-01T17:41:30.027Z,13.52
2023-05-01T17:43:57.444Z,14.45
2023-05-01T17:46:24.911Z,14.80
2023-05-01T17:48:53.837Z,14.77
2023-05-01T17:51:21.228Z,13.90
2023-05-01T17:53:48.621Z,13.20
2023-05-01T17:56:17.718Z,16.38
2023-05-01T17:58:45.112Z,15.27
2023-05-01T18:01:12.649Z,17.40
2023-05-01T18:03:40.202Z,16.83
2023-05-01T18:06:07.651Z,15.85
2023-05-01T18:08:35.085Z,18.40
2023-05-01T18:11:03.763Z,17.63
2023-05-01T18:13:33.514Z,19.20
2023-05-01T18:16:00.881Z,15.75
2023-05-01T18:18:28.457Z,17.70
2023-05-01T18:20:56.140Z,18.88
2023-05-01T18:23:25.255Z,18.65
2023-05-01T18:25:52.757Z,15.55
2023-05-01T18:28:20.283Z,17.55
2023-05-01T18:30:47.612Z,20.30
2023-05-01T18:33:16.405Z,19.85
2023-05-01T18:35:43.778Z,18.65
2023-05-01T18:38:11.667Z,19.20
2023-05-01T18:40:39.343Z,20.55
2023-05-01T18:43:06.838Z,22.38
2023-05-01T18:45:34.342Z,18.25
2023-05-01T18:48:01.792Z,22.67
2023-05-01T18:50:29.228Z,24.40
2023-05-01T18:52:56.640Z,27.77
2023-05-01T18:55:25.163Z,22.00
2023-05-01T18:57:52.645Z,23.52
2023-05-01T19:00:21.371Z,21.95
2023-05-01T19:02:52.185Z,25.67
2023-05-01T19:05:20.017Z,25.73
2023-05-01T19:07:49.111Z,24.45
2023-05-01T19:10:16.824Z,27.52
2023-05-01T19:12:44.358Z,23.95
2023-05-01T19:15:11.895Z,29.77
2023-05-01T19:17:39.928Z,24.55
2023-05-01T19:20:08.109Z,25.27
2023-05-01T19:22:35.670Z,27.08
2023-05-01T19:25:03.371Z,29.17
2023-05-01T19:27:31.210Z,24.75
2023-05-01T19:30:01.230Z,25.55
2023-05-01T19:32:29.469Z,26.67
2023-05-01T19:34:57.113Z,26.85
2023-05-01T19:37:24.523Z,32.17
2023-05-01T19:39:51.898Z,26.42
2023-05-01T19:42:19.893Z,28.77
2023-05-01T19:44:47.774Z,28.83
2023-05-01T19:47:15.274Z,32.50
2023-05-01T19:49:43.815Z,20.40
2023-05-01T19:52:11.241Z,26.48
2023-05-01T19:54:38.610Z,23.85
2023-05-01T19:57:06.000Z,26.05
2023-05-01T19:59:33.495Z,26.27
2023-05-01T20:02:01.597Z,24.13
2023-05-01T20:04:29.085Z,25.45
2023-05-01T20:06:56.472Z,26.08
2023-05-01T20:09:24.868Z,21.13
2023-05-01T20:11:52.628Z,24.55
2023-05-01T20:14:20.072Z,24.20
2023-05-01T20:16:49.123Z,22.40
2023-05-01T20:19:20.197Z,24.55
2023-05-01T20:21:47.638Z,27.48
2023-05-01T20:24:15.054Z,24.63
2023-05-01T20:26:42.745Z,24.45
2023-05-01T20:29:10.238Z,25.25
2023-05-01T20:31:37.741Z,24.38
2023-05-01T20:34:05.487Z,21.85
2023-05-01T20:36:32.984Z,23.00
2023-05-01T20:39:01.810Z,26.73
2023-05-01T20:41:36.034Z,22.90
2023-05-01T20:44:03.728Z,25.65
2023-05-01T20:46:31.641Z,25.55
2023-05-01T20:49:00.381Z,26.80
2023-05-01T20:51:27.742Z,26.80
2023-05-01T20:53:55.093Z,29.27
2023-05-01T20:56:23.671Z,32.45
2023-05-01T20:58:50.997Z,28.88
2023-05-01T21:01:18.466Z,23.98
2023-05-01T21:03:45.988Z,24.17
2023-05-01T21:06:16.042Z,29.90
2023-05-01T21:08:43.532Z,27.85
2023-05-01T21:11:10.993Z,25.65
2023-05-01T21:13:38.338Z,28.55
2023-05-01T21:16:09.614Z,26.95
2023-05-01T21:18:37.421Z,29.10
2023-05-01T21:21:04.792Z,24.83
2023-05-01T21:23:32.092Z,23.77
2023-05-01T21:25:59.595Z,28.35
2023-05-01T21:28:27.678Z,29.38
2023-05-01T21:30:55.185Z,26.70
2023-05-01T21:33:22.616Z,33.50
2023-05-01T21:35:50.082Z,25.60
2023-05-01T21:38:18.560Z,24.77
2023-05-01T21:40:46.255Z,24.50
2023-05-01T21:43:13.759Z,24.65
2023-05-01T21:45:44.811Z,24.35
2023-05-01T21:48:15.135Z,23.02
2023-05-01T21:50:42.596Z,24.90
2023-05-01T21:53:09.965Z,23.25
2023-05-01T21:55:38.688Z,25.88
2023-05-01T21:58:06.121Z,24.25
2023-05-01T22:00:33.877Z,20.92
2023-05-01T22:03:06.942Z,22.02
2023-05-01T22:05:34.650Z,20.63
2023-05-01T22:08:01.980Z,21.70
2023-05-01T22:10:30.211Z,23.73
2023-05-01T22:12:57.579Z,27.25
2023-05-01T22:15:24.951Z,23.13
2023-05-01T22:17:52.493Z,23.08
2023-05-01T22:20:19.879Z,23.05
2023-05-01T22:22:47.328Z,22.15
2023-05-01T22:25:14.778Z,25.02
2023-05-01T22:27:42.111Z,25.98
2023-05-01T22:30:10.294Z,26.85
2023-05-01T22:32:37.799Z,26.27
2023-05-01T22:35:07.278Z,22.05
2023-05-01T22:37:34.584Z,22.52
2023-05-01T22:40:02.108Z,26.52
2023-05-01T22:42:32.270Z,20.15
2023-05-01T22:44:59.572Z,23.08
2023-05-01T22:47:26.886Z,25.33
2023-05-01T22:49:54.240Z,21.40
2023-05-01T22:52:21.634Z,20.83
2023-05-01T22:54:51.767Z,21.77
2023-05-01T22:57:19.110Z,17.52
2023-05-01T22:59:46.487Z,18.48
2023-05-01T23:02:17.703Z,19.38
2023-05-01T23:04:45.636Z,20.00
2023-05-01T23:07:13.869Z,17.20
2023-05-01T23:09:41.523Z,17.48
2023-05-01T23:12:19.061Z,17.23
2023-05-01T23:14:47.006Z,16.35
2023-05-01T23:17:15.261Z,17.77
2023-05-01T23:19:43.699Z,19.75
2023-05-01T23:22:13.200Z,19.02
2023-05-01T23:24:48.560Z,18.90
2023-05-01T23:27:17.472Z,20.45
2023-05-01T23:29:59.393Z,17.60
2023-05-01T23:32:27.967Z,14.57
2023-05-01T23:35:00.796Z,15.02
2023-05-01T23:37:28.207Z,14.77
2023-05-01T23:39:55.743Z,17.65
2023-05-01T23:42:23.057Z,15.75
2023-05-01T23:44:51.163Z,19.30
2023-05-01T23:47:18.618Z,14.55
2023-05-01T23:49:46.175Z,17.45
2023-05-01T23:52:13.696Z,16.58
2023-05-01T23:54:41.067Z,13.18
2023-05-01T23:57:08.416Z,16.75
2023-05-01T23:59:36.086Z,11.95
